Time;durP1;ratioP1;P1;durP2;ratioP2;P2;SDS_P1;SDS_P2;PMS_P1;PMS_P2;Temp;Humidity;BMP_temperature;BMP_pressure;BME280_temperature;BME280_humidity;BME280_pressure;Samples;Min_cycle;Max_cycle;Signal;HPM_P1;HPM_P2
2021/04/20 00:01:42;;;;;;;21.10;11.60;;;7.40;99.90;;;;;;5052490;28;20558;-84
2021/04/20 00:04:08;;;;;;;23.37;13.40;;;7.40;99.90;;;;;;5032915;28;20237;-84
2021/04/20 00:06:34;;;;;;;22.00;13.00;;;7.40;99.90;;;;;;5052755;28;20198;-83
2021/04/20 00:09:00;;;;;;;22.07;14.37;;;7.40;99.90;;;;;;5035558;28;20549;-84
2021/04/20 00:11:27;;;;;;;23.13;13.33;;;7.40;99.90;;;;;;5059283;28;20681;-84
2021/04/20 00:13:53;;;;;;;28.20;12.50;;;7.40;99.90;;;;;;5052014;28;20260;-84
2021/04/20 00:16:19;;;;;;;25.47;14.13;;;7.40;99.90;;;;;;5051861;28;20649;-85
2021/04/20 00:18:45;;;;;;;19.43;12.87;;;7.40;99.90;;;;;;5034173;28;20220;-84
2021/04/20 00:21:11;;;;;;;18.17;12.37;;;7.30;99.90;;;;;;5051548;28;20264;-83
2021/04/20 00:23:36;;;;;;;21.97;15.57;;;7.30;99.90;;;;;;5032036;28;20278;-84
2021/04/20 00:26:02;;;;;;;26.00;12.87;;;7.30;99.90;;;;;;5033375;28;20699;-84
2021/04/20 00:28:29;;;;;;;19.57;11.13;;;7.20;99.90;;;;;;5032208;28;20222;-84
2021/04/20 00:30:55;;;;;;;24.07;13.00;;;7.20;99.90;;;;;;5050158;28;20328;-85
2021/04/20 00:33:21;;;;;;;23.70;13.60;;;7.20;99.90;;;;;;5060402;28;20193;-84
2021/04/20 00:35:47;;;;;;;21.53;12.10;;;7.10;99.90;;;;;;5048812;28;20245;-86
2021/04/20 00:38:13;;;;;;;21.03;14.10;;;7.10;99.90;;;;;;5049678;28;20558;-83
2021/04/20 00:40:39;;;;;;;21.37;12.90;;;7.10;99.90;;;;;;5032062;28;20761;-84
2021/04/20 00:43:05;;;;;;;23.87;13.50;;;7.10;99.90;;;;;;5050135;28;20302;-84
2021/04/20 00:45:33;;;;;;;20.07;12.53;;;7.20;99.90;;;;;;5036082;28;20182;-84
2021/04/20 00:48:01;;;;;;;24.63;15.00;;;7.30;99.90;;;;;;5061446;28;20701;-84
2021/04/20 00:50:39;;;;;;;22.83;16.30;;;7.40;99.90;;;;;;5052416;28;20300;-84
2021/04/20 00:53:07;;;;;;;20.90;13.03;;;7.50;99.90;;;;;;5051127;28;20659;-84
2021/04/20 00:55:34;;;;;;;26.13;15.17;;;7.50;99.90;;;;;;5030978;28;21219;-84
2021/04/20 00:58:00;;;;;;;22.10;11.33;;;7.50;99.90;;;;;;5029372;28;20221;-84
2021/04/20 01:00:31;;;;;;;19.97;12.27;;;7.40;99.90;;;;;;5045086;28;20192;-83
2021/04/20 01:02:57;;;;;;;26.93;14.27;;;7.40;99.90;;;;;;5054535;28;20205;-84
2021/04/20 01:05:46;;;;;;;26.03;13.80;;;7.30;99.90;;;;;;5032069;28;20577;-84
2021/04/20 01:08:14;;;;;;;16.43;12.33;;;7.30;99.90;;;;;;5051494;28;20586;-83
2021/04/20 01:10:43;;;;;;;26.77;12.90;;;7.20;99.90;;;;;;5049723;28;20225;-83
2021/04/20 01:13:10;;;;;;;17.37;13.23;;;7.20;99.90;;;;;;5051514;28;20335;-85
2021/04/20 01:15:37;;;;;;;16.67;10.50;;;7.10;99.90;;;;;;5049368;28;20261;-84
2021/04/20 01:18:11;;;;;;;23.73;13.17;;;7.00;99.90;;;;;;5053852;28;20305;-84
2021/04/20 01:20:39;;;;;;;29.00;13.80;;;7.00;99.90;;;;;;5049916;28;20217;-84
2021/04/20 01:23:07;;;;;;;26.57;13.17;;;7.10;99.90;;;;;;5051033;28;20221;-83
2021/04/20 01:25:33;;;;;;;19.33;13.40;;;7.10;99.90;;;;;;5048406;28;20707;-84
2021/04/20 01:27:58;;;;;;;23.50;13.73;;;7.10;99.90;;;;;;5050877;28;20222;-84
2021/04/20 01:30:24;;;;;;;22.30;15.30;;;7.20;99.90;;;;;;5032960;28;20220;-84
2021/04/20 01:32:50;;;;;;;25.77;15.27;;;7.20;99.90;;;;;;5034690;28;20983;-83
2021/04/20 01:35:16;;;;;;;21.57;12.30;;;7.20;99.90;;;;;;5033939;28;20226;-83
2021/04/20 01:37:42;;;;;;;25.73;15.67;;;7.20;99.90;;;;;;5034536;28;20202;-83
2021/04/20 01:40:09;;;;;;;28.23;15.27;;;7.20;99.90;;;;;;5050013;28;21038;-84
2021/04/20 01:42:35;;;;;;;25.80;15.47;;;7.20;99.90;;;;;;5033075;28;20255;-83
2021/04/20 01:45:05;;;;;;;26.10;14.97;;;7.30;99.90;;;;;;5051420;28;20178;-84
2021/04/20 01:47:32;;;;;;;24.20;13.97;;;7.30;99.90;;;;;;5050469;28;20217;-83
2021/04/20 01:50:00;;;;;;;22.63;13.63;;;7.20;99.90;;;;;;5050307;28;20217;-85
2021/04/20 01:52:26;;;;;;;23.83;15.13;;;7.20;99.90;;;;;;5050052;28;20325;-85
2021/04/20 01:54:51;;;;;;;32.17;15.77;;;7.20;99.90;;;;;;5049312;28;20813;-84
2021/04/20 01:57:18;;;;;;;34.63;16.67;;;7.20;99.90;;;;;;5034441;28;20190;-85
2021/04/20 01:59:44;;;;;;;32.77;19.43;;;7.30;99.90;;;;;;5050575;28;20359;-84
2021/04/20 02:02:10;;;;;;;26.87;16.77;;;7.30;99.90;;;;;;5032361;28;20221;-83
2021/04/20 02:04:36;;;;;;;31.97;18.67;;;7.40;99.90;;;;;;5048919;28;20221;-83
2021/04/20 02:07:02;;;;;;;27.77;14.00;;;7.40;99.90;;;;;;5048110;28;20683;-84
2021/04/20 02:09:29;;;;;;;23.83;13.77;;;7.40;99.90;;;;;;5054813;28;20303;-83
2021/04/20 02:11:54;;;;;;;33.63;13.60;;;7.40;99.90;;;;;;5039670;28;20193;-83
2021/04/20 02:14:20;;;;;;;24.07;13.63;;;7.40;99.90;;;;;;5052667;28;20594;-82
2021/04/20 02:16:46;;;;;;;16.87;10.47;;;7.30;99.90;;;;;;5053481;28;20992;-85
2021/04/20 02:19:14;;;;;;;21.80;13.30;;;7.20;99.90;;;;;;5035851;28;20209;-83
2021/04/20 02:21:40;;;;;;;26.27;13.77;;;7.00;99.90;;;;;;5036556;28;20328;-85
2021/04/20 02:24:13;;;;;;;24.97;13.53;;;7.00;99.90;;;;;;5056021;28;20570;-84
2021/04/20 02:26:40;;;;;;;24.53;12.40;;;7.00;99.90;;;;;;5070159;28;20309;-83
2021/04/20 02:29:08;;;;;;;18.50;12.50;;;7.10;99.90;;;;;;5054334;28;20221;-85
2021/04/20 02:31:39;;;;;;;24.20;14.70;;;7.10;99.90;;;;;;5053300;28;20213;-85
2021/04/20 02:34:06;;;;;;;21.43;13.07;;;7.10;99.90;;;;;;5053659;28;20213;-83
2021/04/20 02:36:36;;;;;;;19.03;12.73;;;7.10;99.90;;;;;;5054309;28;20200;-83
2021/04/20 02:39:04;;;;;;;23.90;15.20;;;7.10;99.90;;;;;;5060403;28;20235;-83
2021/04/20 02:41:30;;;;;;;20.63;12.70;;;7.10;99.90;;;;;;5057459;28;20221;-84
2021/04/20 02:43:56;;;;;;;26.50;16.93;;;7.10;99.90;;;;;;5040168;28;20297;-83
2021/04/20 02:46:22;;;;;;;19.27;12.80;;;7.00;99.90;;;;;;5056431;28;20217;-84
2021/04/20 02:48:50;;;;;;;18.90;11.50;;;7.00;99.90;;;;;;5037632;28;20244;-84
2021/04/20 02:51:17;;;;;;;23.53;13.00;;;7.00;99.90;;;;;;5077148;28;20185;-82
2021/04/20 02:53:44;;;;;;;22.67;14.13;;;7.10;99.90;;;;;;5073123;28;20220;-83
2021/04/20 02:56:15;;;;;;;20.67;12.30;;;7.10;99.90;;;;;;5072558;28;20682;-83
2021/04/20 02:58:43;;;;;;;23.07;14.67;;;7.10;99.90;;;;;;5075740;28;20250;-84
2021/04/20 03:01:18;;;;;;;30.80;16.27;;;7.10;99.90;;;;;;5054909;28;20217;-84
2021/04/20 03:03:48;;;;;;;21.13;13.33;;;7.20;99.90;;;;;;5054496;28;20239;-83
2021/04/20 03:06:15;;;;;;;32.73;13.00;;;7.10;99.90;;;;;;5022203;28;20199;-82
2021/04/20 03:08:42;;;;;;;21.57;13.97;;;7.10;99.90;;;;;;5055778;28;20224;-83
2021/04/20 03:11:15;;;;;;;22.37;13.13;;;7.10;99.90;;;;;;5056034;28;20242;-84
2021/04/20 03:13:44;;;;;;;25.57;13.30;;;7.10;99.90;;;;;;5056017;28;20224;-83
2021/04/20 03:16:16;;;;;;;24.73;16.23;;;7.10;99.90;;;;;;5055567;28;20217;-82
2021/04/20 03:18:42;;;;;;;21.27;12.73;;;7.10;99.90;;;;;;5035508;28;20266;-83
2021/04/20 03:21:14;;;;;;;29.43;14.97;;;7.10;99.90;;;;;;5070288;28;20251;-86
2021/04/20 03:23:42;;;;;;;21.87;12.60;;;7.10;99.90;;;;;;5053966;28;20220;-84
2021/04/20 03:26:37;;;;;;;20.60;12.30;;;7.10;99.90;;;;;;5053860;28;20228;-85
2021/04/20 03:29:07;;;;;;;24.20;13.20;;;7.20;99.90;;;;;;5071378;28;20354;-84
2021/04/20 03:31:36;;;;;;;18.97;10.80;;;7.30;99.90;;;;;;5053745;28;20217;-83
2021/04/20 03:34:06;;;;;;;23.87;14.57;;;7.30;99.90;;;;;;5072812;28;20263;-83
2021/04/20 03:36:35;;;;;;;19.93;13.53;;;7.40;99.90;;;;;;5055267;28;20193;-83
2021/04/20 03:39:10;;;;;;;27.57;13.87;;;7.50;99.90;;;;;;5075196;28;20225;-83
2021/04/20 03:41:47;;;;;;;27.53;14.50;;;7.60;99.90;;;;;;5053136;28;20217;-84
2021/04/20 03:44:18;;;;;;;18.73;13.53;;;7.60;99.90;;;;;;5072610;28;20228;-84
2021/04/20 03:46:46;;;;;;;20.80;13.10;;;7.60;99.90;;;;;;5054408;28;20279;-83
2021/04/20 03:49:20;;;;;;;15.20;12.43;;;7.60;99.90;;;;;;5054163;28;20209;-85
2021/04/20 03:51:48;;;;;;;27.37;16.00;;;7.60;99.90;;;;;;5056031;28;20212;-84
2021/04/20 03:54:17;;;;;;;25.40;13.60;;;7.60;99.90;;;;;;5064723;28;20327;-84
2021/04/20 03:56:49;;;;;;;22.83;12.93;;;7.70;99.90;;;;;;5057346;28;20232;-85
2021/04/20 03:59:16;;;;;;;18.50;13.23;;;7.70;99.90;;;;;;5071428;28;20232;-84
2021/04/20 04:01:45;;;;;;;28.13;15.93;;;7.80;99.90;;;;;;5053986;28;20233;-85
2021/04/20 04:04:16;;;;;;;25.50;16.43;;;7.80;99.90;;;;;;5058179;28;20228;-85
2021/04/20 04:06:43;;;;;;;15.60;12.40;;;7.80;99.90;;;;;;5054068;28;20774;-85
2021/04/20 04:09:13;;;;;;;18.67;11.03;;;7.80;99.90;;;;;;5056271;28;20181;-85
2021/04/20 04:12:01;;;;;;;27.10;14.60;;;7.70;99.90;;;;;;5051426;28;20270;-84
2021/04/20 04:14:29;;;;;;;25.47;15.13;;;7.60;99.90;;;;;;5053513;28;20236;-82
2021/04/20 04:17:00;;;;;;;24.40;13.57;;;7.50;99.90;;;;;;5036947;28;20275;-83
2021/04/20 04:19:34;;;;;;;21.73;12.60;;;7.50;99.90;;;;;;5063022;28;20212;-83
2021/04/20 04:22:08;;;;;;;20.30;15.97;;;7.60;99.90;;;;;;5053455;28;20224;-84
2021/04/20 04:24:44;;;;;;;26.53;14.30;;;7.50;99.90;;;;;;5055201;28;20736;-85
2021/04/20 04:27:13;;;;;;;28.30;15.23;;;7.50;99.90;;;;;;5056990;28;20172;-83
2021/04/20 04:29:41;;;;;;;19.17;12.43;;;7.50;99.90;;;;;;5070617;28;20237;-84
2021/04/20 04:32:11;;;;;;;20.73;12.00;;;7.50;99.90;;;;;;5034733;28;20258;-86
2021/04/20 04:34:38;;;;;;;23.77;13.33;;;7.50;99.90;;;;;;5070543;28;20224;-84
2021/04/20 04:37:05;;;;;;;23.67;10.93;;;7.60;99.90;;;;;;5070110;28;20756;-88
2021/04/20 04:39:31;;;;;;;18.47;13.17;;;7.50;99.90;;;;;;5039447;28;20302;-87
2021/04/20 04:41:57;;;;;;;19.47;12.60;;;7.50;99.90;;;;;;5065260;28;20197;-87
2021/04/20 04:44:23;;;;;;;19.13;12.73;;;7.50;99.90;;;;;;5069768;28;20788;-84
2021/04/20 04:46:49;;;;;;;23.00;13.83;;;7.60;99.90;;;;;;5051252;28;20274;-84
2021/04/20 04:49:16;;;;;;;25.67;14.87;;;7.50;99.90;;;;;;5050473;28;20224;-83
2021/04/20 04:51:42;;;;;;;25.70;14.93;;;7.50;99.90;;;;;;5035380;28;20280;-83
2021/04/20 04:54:13;;;;;;;21.53;12.60;;;7.60;99.90;;;;;;5054327;28;20280;-85
2021/04/20 04:56:41;;;;;;;25.70;13.93;;;7.70;99.90;;;;;;5047116;28;20725;-85
2021/04/20 04:59:08;;;;;;;22.10;11.57;;;7.80;99.90;;;;;;5054763;28;20232;-85
2021/04/20 05:01:38;;;;;;;19.87;10.43;;;7.70;99.90;;;;;;5055293;28;20224;-86
2021/04/20 05:04:09;;;;;;;16.43;11.23;;;7.70;99.90;;;;;;5034401;28;20327;-85
2021/04/20 05:06:46;;;;;;;17.47;11.40;;;7.70;99.90;;;;;;5071789;28;20197;-84
2021/04/20 05:09:13;;;;;;;19.53;12.30;;;7.80;99.90;;;;;;5073485;28;20234;-85
2021/04/20 05:11:44;;;;;;;29.87;13.83;;;8.00;99.90;;;;;;5069925;28;20223;-85
2021/04/20 05:14:12;;;;;;;15.57;11.87;;;8.10;99.90;;;;;;5054199;28;20224;-85
2021/04/20 05:16:45;;;;;;;19.90;12.03;;;8.10;99.90;;;;;;5062293;28;20688;-86
2021/04/20 05:19:12;;;;;;;27.50;11.77;;;8.30;99.90;;;;;;5070828;28;20866;-86
2021/04/20 05:21:39;;;;;;;19.67;14.50;;;8.40;99.90;;;;;;5070475;28;20208;-87
2021/04/20 05:24:05;;;;;;;21.90;12.07;;;9.10;99.90;;;;;;5054846;28;20670;-86
2021/04/20 05:26:31;;;;;;;19.00;14.33;;;9.30;99.90;;;;;;5052993;28;20252;-87
2021/04/20 05:29:01;;;;;;;15.17;11.83;;;9.90;99.90;;;;;;5053497;28;20228;-87
2021/04/20 05:31:28;;;;;;;18.27;11.83;;;10.20;99.90;;;;;;5052366;28;20239;-86
2021/04/20 05:34:03;;;;;;;24.67;15.67;;;10.80;99.90;;;;;;5019939;28;20297;-86
2021/04/20 05:36:30;;;;;;;23.93;15.23;;;11.30;99.90;;;;;;5053287;28;20222;-87
2021/04/20 05:38:59;;;;;;;19.57;13.73;;;12.30;99.90;;;;;;5054612;28;20232;-85
2021/04/20 05:41:32;;;;;;;21.13;11.73;;;13.00;99.90;;;;;;5055168;28;20226;-89
2021/04/20 05:44:00;;;;;;;19.77;12.00;;;13.70;99.90;;;;;;5056508;28;20229;-86
2021/04/20 05:46:26;;;;;;;20.97;12.17;;;14.50;99.90;;;;;;5052472;28;20264;-88
2021/04/20 05:48:53;;;;;;;21.37;11.77;;;15.30;99.90;;;;;;5037760;28;20248;-85
2021/04/20 05:51:21;;;;;;;19.93;11.60;;;15.90;99.90;;;;;;5041364;28;20275;-88
2021/04/20 05:53:48;;;;;;;24.43;11.80;;;16.50;99.90;;;;;;5042020;28;20228;-85
2021/04/20 05:56:16;;;;;;;19.37;13.03;;;17.00;99.90;;;;;;5040180;28;20344;-86
2021/04/20 05:58:42;;;;;;;23.77;12.27;;;17.30;99.90;;;;;;5055685;28;20240;-86
2021/04/20 06:01:08;;;;;;;24.13;11.63;;;17.70;99.90;;;;;;5056420;28;20227;-85
2021/04/20 06:03:40;;;;;;;22.03;11.93;;;18.00;99.90;;;;;;5074230;28;20220;-85
2021/04/20 06:06:07;;;;;;;18.70;11.87;;;18.50;99.90;;;;;;5058280;28;20197;-86
2021/04/20 06:08:36;;;;;;;23.37;11.83;;;18.80;99.90;;;;;;5040764;28;20224;-86
2021/04/20 06:11:07;;;;;;;23.90;12.27;;;19.20;99.90;;;;;;5037588;28;20616;-87
2021/04/20 06:13:34;;;;;;;16.23;11.07;;;19.40;99.90;;;;;;5054117;28;20232;-87
2021/04/20 06:16:00;;;;;;;14.27;10.17;;;19.90;99.90;;;;;;5042630;28;20225;-85
2021/04/20 06:18:27;;;;;;;17.40;10.43;;;20.00;99.90;;;;;;5064491;28;20190;-87
2021/04/20 06:20:58;;;;;;;20.73;10.97;;;20.00;99.90;;;;;;5024719;28;20193;-86
2021/04/20 06:23:24;;;;;;;17.60;8.97;;;20.50;99.90;;;;;;5073104;28;20228;-87
2021/04/20 06:25:55;;;;;;;22.77;10.17;;;20.40;99.90;;;;;;5058694;28;20212;-86
2021/04/20 06:28:21;;;;;;;23.10;11.40;;;20.30;99.90;;;;;;5038068;28;20213;-87
2021/04/20 06:30:47;;;;;;;22.20;12.00;;;20.60;99.90;;;;;;5020497;28;20274;-87
2021/04/20 06:33:14;;;;;;;16.93;12.00;;;21.10;99.90;;;;;;5075974;28;20454;-86
2021/04/20 06:35:40;;;;;;;16.97;11.37;;;21.30;99.90;;;;;;5039132;28;20212;-85
2021/04/20 06:38:12;;;;;;;24.77;11.53;;;21.30;99.90;;;;;;5040559;28;20216;-86
2021/04/20 06:40:47;;;;;;;15.73;10.73;;;20.50;99.90;;;;;;5054255;28;20233;-87
2021/04/20 06:43:14;;;;;;;17.13;11.60;;;19.70;99.90;;;;;;5072750;28;20228;-87
2021/04/20 06:45:52;;;;;;;20.90;11.50;;;19.80;99.90;;;;;;5073597;28;20956;-87
2021/04/20 06:48:45;;;;;;;19.53;11.57;;;19.60;99.90;;;;;;5074301;28;20681;-88
2021/04/20 06:51:20;;;;;;;22.97;11.90;;;19.50;99.90;;;;;;5054943;28;20262;-87
2021/04/20 06:54:06;;;;;;;18.67;10.90;;;19.70;99.90;;;;;;5055088;28;20219;-86
2021/04/20 06:56:40;;;;;;;19.20;10.80;;;19.70;99.90;;;;;;5074049;28;20225;-86
2021/04/20 06:59:08;;;;;;;21.40;11.60;;;20.10;99.90;;;;;;5055260;28;20217;-88
2021/04/20 07:02:16;;;;;;;18.90;11.13;;;20.30;99.90;;;;;;5075735;28;20627;-85
2021/04/20 07:04:57;;;;;;;23.27;11.83;;;19.90;99.90;;;;;;5058734;28;20233;-87
2021/04/20 07:07:31;;;;;;;18.73;10.30;;;20.00;99.90;;;;;;5055730;28;20795;-87
2021/04/20 07:10:45;;;;;;;14.90;9.57;;;19.30;99.90;;;;;;5075154;28;20219;-87
2021/04/20 07:13:18;;;;;;;18.40;11.47;;;19.20;99.90;;;;;;5067488;28;20240;-87
2021/04/20 07:15:50;;;;;;;19.10;11.07;;;19.90;99.90;;;;;;5073336;28;20198;-87
2021/04/20 07:18:45;;;;;;;19.07;10.80;;;19.80;99.90;;;;;;5055684;28;20177;-86
2021/04/20 07:21:11;;;;;;;19.20;10.40;;;20.20;99.90;;;;;;5054921;28;20224;-86
2021/04/20 07:23:58;;;;;;;17.97;11.23;;;20.20;99.90;;;;;;5056191;28;20222;-87
2021/04/20 07:27:02;;;;;;;17.60;10.77;;;20.00;99.90;;;;;;5054710;28;21064;-87
2021/04/20 07:29:50;;;;;;;19.10;11.03;;;19.80;99.90;;;;;;5053236;28;20311;-86
2021/04/20 07:32:35;;;;;;;17.40;10.37;;;19.50;99.90;;;;;;5050797;28;20395;-86
2021/04/20 07:35:03;;;;;;;21.60;12.43;;;19.20;99.90;;;;;;5048481;28;20213;-86
2021/04/20 07:38:09;;;;;;;19.67;12.10;;;19.30;99.90;;;;;;5051415;28;20748;-88
2021/04/20 07:40:39;;;;;;;20.07;11.23;;;19.30;99.90;;;;;;5042126;28;20233;-88
2021/04/20 07:43:33;;;;;;;18.13;10.47;;;19.20;99.90;;;;;;5051510;28;20249;-87
2021/04/20 07:46:08;;;;;;;18.00;11.00;;;18.80;99.90;;;;;;5066856;28;20694;-86
2021/04/20 07:48:49;;;;;;;21.03;10.33;;;18.60;99.90;;;;;;5049212;28;20192;-87
2021/04/20 07:51:42;;;;;;;20.17;11.53;;;18.60;99.90;;;;;;5052961;28;20230;-86
2021/04/20 07:54:21;;;;;;;17.73;11.77;;;19.70;99.90;;;;;;5052431;28;20249;-87
2021/04/20 07:57:06;;;;;;;15.43;10.70;;;21.30;99.90;;;;;;5051935;28;20216;-87
2021/04/20 07:59:42;;;;;;;18.67;10.57;;;21.30;99.90;;;;;;5051598;28;20217;-86
2021/04/20 08:02:21;;;;;;;20.23;11.47;;;22.80;99.90;;;;;;5051005;28;20680;-86
2021/04/20 08:05:01;;;;;;;16.53;10.60;;;23.60;99.90;;;;;;5056770;28;20233;-87
2021/04/20 08:07:46;;;;;;;22.90;12.30;;;24.10;99.90;;;;;;5055641;28;20216;-87
2021/04/20 08:10:13;;;;;;;18.17;11.57;;;24.80;99.90;;;;;;5067168;28;20339;-86
2021/04/20 08:13:08;;;;;;;20.63;11.70;;;25.00;99.90;;;;;;5050989;28;20188;-88
2021/04/20 08:15:46;;;;;;;19.42;11.73;;;24.80;99.90;;;;;;5057993;28;20283;-85
2021/04/20 08:18:17;;;;;;;17.60;11.13;;;24.40;99.90;;;;;;5051109;28;20192;-86
2021/04/20 08:20:44;;;;;;;18.30;10.43;;;24.00;99.90;;;;;;5052451;28;20213;-86
2021/04/20 08:23:11;;;;;;;16.83;10.40;;;24.00;99.90;;;;;;5037731;28;20221;-87
2021/04/20 08:25:52;;;;;;;15.90;10.98;;;24.40;99.90;;;;;;4993789;28;20217;-86
2021/04/20 08:28:40;;;;;;;19.20;11.10;;;24.90;99.90;;;;;;5058755;28;20676;-88
2021/04/20 08:31:11;;;;;;;14.20;10.30;;;24.20;99.90;;;;;;5013574;28;20785;-87
2021/04/20 08:33:42;;;;;;;14.10;9.27;;;23.50;99.90;;;;;;5045759;28;20234;-86
2021/04/20 08:36:29;;;;;;;15.60;10.35;;;23.80;99.90;;;;;;5059077;28;20242;-88
2021/04/20 08:39:17;;;;;;;15.77;9.90;;;24.60;99.90;;;;;;5052675;28;20227;-88
2021/04/20 08:41:50;;;;;;;18.85;10.25;;;24.40;99.50;;;;;;5070672;28;20309;-86
2021/04/20 08:44:36;;;;;;;17.15;11.07;;;24.90;99.90;;;;;;5071265;28;20256;-86
2021/04/20 08:47:19;;;;;;;17.27;10.73;;;24.90;99.90;;;;;;5051785;28;20215;-88
2021/04/20 08:50:11;;;;;;;15.98;10.30;;;24.80;99.30;;;;;;5062664;28;20745;-85
2021/04/20 08:53:01;;;;;;;12.00;8.70;;;25.00;99.60;;;;;;5054076;28;20269;-86
2021/04/20 08:55:53;;;;;;;13.40;9.35;;;23.90;98.80;;;;;;5053569;28;20331;-85
2021/04/20 08:58:53;;;;;;;14.93;9.35;;;22.30;99.90;;;;;;5053295;28;20216;-87
2021/04/20 09:01:30;;;;;;;16.25;9.80;;;23.00;99.90;;;;;;5055451;28;20240;-87
2021/04/20 09:04:26;;;;;;;14.52;9.63;;;24.00;99.70;;;;;;5051864;28;20212;-87
2021/04/20 09:06:55;;;;;;;12.75;8.43;;;23.90;99.70;;;;;;5052999;28;20282;-87
2021/04/20 09:09:24;;;;;;;14.70;9.15;;;23.70;99.20;;;;;;5054916;28;20192;-87
2021/04/20 09:12:01;;;;;;;15.55;7.90;;;23.70;99.70;;;;;;5054652;28;21397;-89
2021/04/20 09:14:38;;;;;;;11.60;8.85;;;22.30;99.50;;;;;;5051439;28;20226;-87
2021/04/20 09:17:15;;;;;;;13.68;8.05;;;22.30;99.90;;;;;;5051330;28;20236;-86
2021/04/20 09:19:53;;;;;;;9.63;7.70;;;22.50;99.80;;;;;;5069827;28;20240;-87
2021/04/20 09:22:57;;;;;;;12.52;7.80;;;21.10;99.90;;;;;;5052308;28;20244;-87
2021/04/20 09:25:50;;;;;;;10.98;8.18;;;21.30;99.90;;;;;;5053770;28;20236;-88
2021/04/20 09:28:26;;;;;;;13.00;7.40;;;21.60;99.90;;;;;;5054135;28;20213;-87
2021/04/20 09:30:54;;;;;;;9.95;5.95;;;20.10;99.90;;;;;;5050924;28;20620;-88
2021/04/20 09:33:26;;;;;;;13.80;6.78;;;19.60;99.90;;;;;;5052939;28;20189;-88
2021/04/20 09:35:53;;;;;;;8.80;6.45;;;20.10;99.90;;;;;;5049851;28;20220;-87
2021/04/20 09:38:20;;;;;;;11.35;6.88;;;20.60;99.90;;;;;;5030869;28;20317;-86
2021/04/20 09:40:48;;;;;;;11.17;6.73;;;20.90;99.90;;;;;;5031601;28;20231;-87
2021/04/20 09:43:23;;;;;;;12.80;6.87;;;20.80;99.90;;;;;;5051051;28;20354;-88
2021/04/20 09:46:09;;;;;;;13.73;6.50;;;20.90;99.90;;;;;;5051267;28;20193;-87
2021/04/20 09:48:44;;;;;;;7.15;6.15;;;20.40;99.90;;;;;;5071620;28;20181;-86
2021/04/20 09:51:19;;;;;;;11.68;7.03;;;19.40;99.90;;;;;;5050078;28;20212;-89
2021/04/20 09:54:02;;;;;;;11.48;7.07;;;19.70;99.90;;;;;;5051473;28;20225;-88
2021/04/20 09:56:38;;;;;;;11.40;6.57;;;20.80;99.90;;;;;;5050370;28;20292;-88
2021/04/20 09:59:12;;;;;;;11.03;7.30;;;21.50;99.90;;;;;;5050782;28;20224;-88
2021/04/20 10:01:56;;;;;;;15.65;6.63;;;20.80;99.90;;;;;;5052559;28;20239;-87
2021/04/20 10:04:49;;;;;;;14.00;7.20;;;22.40;99.90;;;;;;5070061;28;20247;-88
2021/04/20 10:07:52;;;;;;;10.45;7.28;;;22.80;99.00;;;;;;5052781;28;20213;-88
2021/04/20 10:10:36;;;;;;;9.57;6.40;;;21.70;99.30;;;;;;5051841;28;20255;-88
2021/04/20 10:13:24;;;;;;;11.73;6.82;;;21.30;99.90;;;;;;5051971;28;20234;-88
2021/04/20 10:15:54;;;;;;;7.18;5.53;;;20.70;99.90;;;;;;5052023;28;20193;-88
2021/04/20 10:18:27;;;;;;;11.63;6.80;;;20.40;99.90;;;;;;5055179;28;20276;-88
2021/04/20 10:21:19;;;;;;;11.38;6.55;;;20.90;99.90;;;;;;5052314;28;20212;-88
2021/04/20 10:24:02;;;;;;;9.23;6.57;;;22.40;99.70;;;;;;5035783;28;20274;-86
2021/04/20 10:26:34;;;;;;;9.13;6.55;;;23.50;98.40;;;;;;5070382;28;20281;-87
2021/04/20 10:29:24;;;;;;;10.20;5.97;;;21.60;98.80;;;;;;5058307;28;20275;-89
2021/04/20 10:32:01;;;;;;;9.23;6.30;;;21.70;99.00;;;;;;5058474;28;20220;-87
2021/04/20 10:34:28;;;;;;;8.80;6.85;;;21.50;99.20;;;;;;5074113;28;20705;-89
2021/04/20 10:36:56;;;;;;;9.63;6.03;;;20.10;99.90;;;;;;5051277;28;20215;-87
2021/04/20 10:39:25;;;;;;;9.07;5.77;;;19.60;99.90;;;;;;5055210;28;20229;-86
2021/04/20 10:41:53;;;;;;;14.13;6.45;;;20.40;99.90;;;;;;5072983;28;20294;-88
2021/04/20 10:44:21;;;;;;;12.10;6.03;;;21.90;98.00;;;;;;5054463;28;20286;-88
2021/04/20 10:46:56;;;;;;;7.17;5.33;;;22.00;96.20;;;;;;5056995;28;20220;-88
2021/04/20 10:49:24;;;;;;;7.07;6.23;;;21.60;96.40;;;;;;5055754;28;20736;-88
2021/04/20 10:51:56;;;;;;;9.07;5.40;;;21.30;96.90;;;;;;5057012;28;20242;-87
2021/04/20 10:54:26;;;;;;;9.18;6.35;;;21.60;97.10;;;;;;5058297;28;20177;-86
2021/04/20 10:56:55;;;;;;;10.60;6.13;;;21.70;96.20;;;;;;5071556;28;20228;-87
2021/04/20 10:59:28;;;;;;;8.50;5.90;;;21.50;97.20;;;;;;5056982;28;20698;-87
2021/04/20 11:01:57;;;;;;;11.03;6.23;;;22.10;97.50;;;;;;5055534;28;21263;-88
2021/04/20 11:04:26;;;;;;;12.05;6.97;;;21.90;98.50;;;;;;5055343;28;20225;-88
2021/04/20 11:07:27;;;;;;;9.03;6.03;;;21.90;99.90;;;;;;5056550;28;20200;-88
2021/04/20 11:10:05;;;;;;;15.23;7.03;;;21.00;99.90;;;;;;5055907;28;20196;-87
2021/04/20 11:12:32;;;;;;;9.63;6.80;;;21.50;99.90;;;;;;5041919;28;20192;-87
2021/04/20 11:14:58;;;;;;;11.40;7.40;;;20.90;99.90;;;;;;5071792;28;20216;-88
2021/04/20 11:17:42;;;;;;;12.05;7.90;;;20.60;99.90;;;;;;5038175;28;20265;-88
2021/04/20 11:20:18;;;;;;;8.40;6.67;;;20.30;99.90;;;;;;5073863;28;20278;-87
2021/04/20 11:22:48;;;;;;;11.30;6.40;;;20.60;99.90;;;;;;5055726;28;20523;-91
2021/04/20 11:25:54;;;;;;;13.67;8.13;;;20.90;99.90;;;;;;5058004;28;20286;-89
2021/04/20 11:28:41;;;;;;;9.83;7.17;;;20.90;99.90;;;;;;5072543;28;20224;-87
2021/04/20 11:31:32;;;;;;;15.27;7.57;;;20.60;99.90;;;;;;5054636;28;20251;-88
2021/04/20 11:34:04;;;;;;;7.50;5.90;;;20.40;99.90;;;;;;5065399;28;20235;-88
2021/04/20 11:36:42;;;;;;;11.47;6.80;;;20.10;99.90;;;;;;5055797;28;20267;-88
2021/04/20 11:39:19;;;;;;;10.80;6.73;;;20.00;99.90;;;;;;5055720;28;20221;-87
2021/04/20 11:42:01;;;;;;;11.83;6.00;;;19.70;99.90;;;;;;5054791;28;20221;-88
2021/04/20 11:44:42;;;;;;;10.80;7.27;;;19.70;99.90;;;;;;5056652;28;20224;-87
2021/04/20 11:47:10;;;;;;;10.63;7.23;;;19.30;99.90;;;;;;5054924;28;20219;-89
2021/04/20 11:49:37;;;;;;;9.63;6.47;;;19.20;99.90;;;;;;5038289;28;20217;-88
2021/04/20 11:52:14;;;;;;;12.70;6.80;;;19.10;99.90;;;;;;5054450;28;20216;-89
2021/04/20 11:54:40;;;;;;;11.50;7.20;;;19.10;99.90;;;;;;5072689;28;20199;-89
2021/04/20 11:57:06;;;;;;;8.50;5.53;;;18.90;99.90;;;;;;5038430;28;20207;-88
2021/04/20 11:59:34;;;;;;;9.03;6.23;;;19.00;99.90;;;;;;5022191;28;20217;-88
2021/04/20 12:02:00;;;;;;;16.73;6.23;;;19.00;99.90;;;;;;5038866;28;20205;-87
2021/04/20 12:04:29;;;;;;;8.23;5.33;;;18.80;99.90;;;;;;5037470;28;20225;-87
2021/04/20 12:06:56;;;;;;;9.00;5.57;;;18.60;99.90;;;;;;5072061;28;20192;-87
2021/04/20 12:09:29;;;;;;;11.73;5.33;;;18.40;99.90;;;;;;5037970;28;20255;-88
2021/04/20 12:11:55;;;;;;;10.07;6.27;;;18.20;99.90;;;;;;5061206;28;20216;-87
2021/04/20 12:14:24;;;;;;;8.87;5.03;;;18.10;99.90;;;;;;5038195;28;20248;-88
2021/04/20 12:16:53;;;;;;;7.67;4.40;;;18.00;99.90;;;;;;5052373;28;20331;-84
2021/04/20 12:19:22;;;;;;;10.37;5.97;;;17.80;99.90;;;;;;5051991;28;20229;-87
2021/04/20 12:21:51;;;;;;;11.10;5.90;;;18.00;99.90;;;;;;5070729;28;20188;-84
2021/04/20 12:24:18;;;;;;;10.40;5.23;;;18.10;99.90;;;;;;5038123;28;20212;-84
2021/04/20 12:26:50;;;;;;;13.53;5.83;;;17.90;99.90;;;;;;5036382;28;20213;-80
2021/04/20 12:29:19;;;;;;;10.43;6.00;;;17.60;99.90;;;;;;5071733;28;20221;-85
2021/04/20 12:31:46;;;;;;;11.60;5.83;;;17.60;99.90;;;;;;5070243;28;20328;-85
2021/04/20 12:34:11;;;;;;;9.07;5.63;;;17.50;99.90;;;;;;5036630;28;20221;-84
2021/04/20 12:36:50;;;;;;;7.20;5.03;;;17.50;99.90;;;;;;5035620;28;20204;-84
2021/04/20 12:39:38;;;;;;;11.77;5.40;;;17.60;99.90;;;;;;5053776;28;20200;-85
2021/04/20 12:42:08;;;;;;;8.20;5.30;;;17.70;99.90;;;;;;5052735;28;20209;-85
2021/04/20 12:44:44;;;;;;;11.20;5.77;;;17.60;99.90;;;;;;5069190;28;20228;-85
2021/04/20 12:47:12;;;;;;;7.90;5.10;;;17.60;99.90;;;;;;5051022;28;20237;-84
2021/04/20 12:49:43;;;;;;;7.90;6.87;;;17.40;99.90;;;;;;5052590;28;20223;-87
2021/04/20 12:52:13;;;;;;;6.80;5.10;;;17.50;99.90;;;;;;5072093;28;20236;-84
2021/04/20 12:54:42;;;;;;;13.43;5.63;;;17.30;99.90;;;;;;5056057;28;20182;-85
2021/04/20 12:57:14;;;;;;;11.23;6.07;;;17.10;99.90;;;;;;5056988;28;20179;-84
2021/04/20 12:59:45;;;;;;;7.13;5.00;;;17.10;99.90;;;;;;5049496;28;20244;-84
2021/04/20 13:02:18;;;;;;;12.23;6.00;;;17.20;99.90;;;;;;5053860;28;20668;-85
2021/04/20 13:04:44;;;;;;;10.90;6.50;;;17.30;99.90;;;;;;5048542;28;20225;-86